createdAt,value
2022-12-25T00:01:52.746Z,12.43
2022-12-25T00:04:21.017Z,12.90
2022-12-25T00:06:49.279Z,13.60
2022-12-25T00:09:17.511Z,14.33
2022-12-25T00:11:45.741Z,12.40
2022-12-25T00:14:15.334Z,12.23
2022-12-25T00:16:43.683Z,12.80
2022-12-25T00:19:11.996Z,13.50
2022-12-25T00:21:40.263Z,17.90
2022-12-25T00:24:08.664Z,14.40
2022-12-25T00:26:36.908Z,13.43
2022-12-25T00:29:05.181Z,11.33
2022-12-25T00:31:35.157Z,12.30
2022-12-25T00:34:03.420Z,11.93
2022-12-25T00:36:36.233Z,11.83
2022-12-25T00:39:07.843Z,11.20
2022-12-25T00:41:53.926Z,11.50
2022-12-25T00:44:22.191Z,12.00
2022-12-25T00:46:51.971Z,10.57
2022-12-25T00:49:20.206Z,10.67
2022-12-25T00:51:48.401Z,11.20
2022-12-25T00:54:16.610Z,10.97
2022-12-25T00:56:44.844Z,10.27
2022-12-25T00:59:13.161Z,11.30
2022-12-25T01:01:41.665Z,10.70
2022-12-25T01:04:11.807Z,9.87
2022-12-25T01:06:40.376Z,10.20
2022-12-25T01:09:26.565Z,10.10
2022-12-25T01:11:54.853Z,9.57
2022-12-25T01:14:23.080Z,10.20
2022-12-25T01:16:51.386Z,10.13
2022-12-25T01:19:21.079Z,9.83
2022-12-25T01:21:49.264Z,10.40
2022-12-25T01:24:17.435Z,10.13
2022-12-25T01:26:45.683Z,10.13
2022-12-25T01:29:13.873Z,10.43
2022-12-25T01:31:42.198Z,10.03
2022-12-25T01:34:10.495Z,10.43
2022-12-25T01:36:40.061Z,10.20
2022-12-25T01:39:08.328Z,10.40
2022-12-25T01:41:36.581Z,11.00
2022-12-25T01:44:07.411Z,10.90
2022-12-25T01:46:36.003Z,9.93
2022-12-25T01:49:05.143Z,9.97
2022-12-25T01:51:35.153Z,10.60
2022-12-25T01:54:07.091Z,10.50
2022-12-25T01:56:36.332Z,9.40
2022-12-25T01:59:05.331Z,9.83
2022-12-25T02:01:33.808Z,9.50
2022-12-25T02:04:05.505Z,9.97
2022-12-25T02:06:35.081Z,9.80
2022-12-25T02:09:04.870Z,9.73
2022-12-25T02:11:50.918Z,10.60
2022-12-25T02:14:19.183Z,8.57
2022-12-25T02:16:56.848Z,9.40
2022-12-25T02:19:33.295Z,9.67
2022-12-25T02:22:03.322Z,8.77
2022-12-25T02:24:48.580Z,9.80
2022-12-25T02:27:20.073Z,8.57
2022-12-25T02:29:55.237Z,9.37
2022-12-25T02:32:27.259Z,9.27
2022-12-25T02:34:57.472Z,9.10
2022-12-25T02:37:28.352Z,8.70
2022-12-25T02:39:59.629Z,7.90
2022-12-25T02:42:53.352Z,8.53
2022-12-25T02:45:43.126Z,8.60
2022-12-25T02:48:30.354Z,8.97
2022-12-25T02:51:16.827Z,8.57
2022-12-25T02:54:03.323Z,8.33
2022-12-25T02:56:49.327Z,7.93
2022-12-25T02:59:48.220Z,8.83
2022-12-25T03:02:37.085Z,8.07
2022-12-25T03:05:24.975Z,8.30
2022-12-25T03:07:53.695Z,8.37
2022-12-25T03:10:40.704Z,8.43
2022-12-25T03:13:12.113Z,9.00
2022-12-25T03:15:57.903Z,8.37
2022-12-25T03:18:28.684Z,8.57
2022-12-25T03:21:13.877Z,7.60
2022-12-25T03:24:01.283Z,8.60
2022-12-25T03:26:47.126Z,7.87
2022-12-25T03:29:35.607Z,8.60
2022-12-25T03:32:08.810Z,10.47
2022-12-25T03:34:58.393Z,7.93
2022-12-25T03:37:59.213Z,7.87
2022-12-25T03:40:48.141Z,8.10
2022-12-25T03:43:40.001Z,7.70
2022-12-25T03:46:29.434Z,7.23
2022-12-25T03:49:19.264Z,7.20
2022-12-25T03:52:06.928Z,7.00
2022-12-25T03:54:52.976Z,7.50
2022-12-25T03:57:53.452Z,7.57
2022-12-25T04:00:39.639Z,7.50
2022-12-25T04:03:34.168Z,7.83
2022-12-25T04:06:20.307Z,7.53
2022-12-25T04:09:07.389Z,7.73
2022-12-25T04:11:58.796Z,8.40
2022-12-25T04:14:48.139Z,7.50
2022-12-25T04:17:34.034Z,6.90
2022-12-25T04:20:20.005Z,6.70
2022-12-25T04:23:05.910Z,7.30
2022-12-25T04:25:53.193Z,6.90
2022-12-25T04:28:39.019Z,7.30
2022-12-25T04:31:25.241Z,7.53
2022-12-25T04:34:11.129Z,6.97
2022-12-25T04:36:39.353Z,6.90
2022-12-25T04:39:07.548Z,7.03
2022-12-25T04:41:37.158Z,7.40
2022-12-25T04:44:05.534Z,7.13
2022-12-25T04:46:33.897Z,7.23
2022-12-25T04:49:02.191Z,7.10
2022-12-25T04:51:30.387Z,6.77
2022-12-25T04:53:58.635Z,6.83
2022-12-25T04:56:26.803Z,6.67
2022-12-25T04:58:56.327Z,6.50
2022-12-25T05:01:24.814Z,6.37
2022-12-25T05:03:53.409Z,6.80
2022-12-25T05:06:21.883Z,6.07
2022-12-25T05:08:50.105Z,6.10
2022-12-25T05:11:18.417Z,6.03
2022-12-25T05:13:46.680Z,6.70
2022-12-25T05:16:18.495Z,6.93
2022-12-25T05:18:46.954Z,5.70
2022-12-25T05:21:15.151Z,6.17
2022-12-25T05:23:54.066Z,6.40
2022-12-25T05:26:23.169Z,6.13
2022-12-25T05:29:13.203Z,5.63
2022-12-25T05:31:42.838Z,5.70
2022-12-25T05:34:11.084Z,5.63
2022-12-25T05:36:40.376Z,5.63
2022-12-25T05:39:08.619Z,5.57
2022-12-25T05:41:36.845Z,5.17
2022-12-25T05:44:05.145Z,5.63
2022-12-25T05:46:33.392Z,5.47
2022-12-25T05:49:03.001Z,5.40
2022-12-25T05:51:31.692Z,5.80
2022-12-25T05:54:00.007Z,5.50
2022-12-25T05:56:28.864Z,5.27
2022-12-25T05:58:57.583Z,5.77
2022-12-25T06:01:26.917Z,5.60
2022-12-25T06:03:55.135Z,5.17
2022-12-25T06:06:24.823Z,5.70
2022-12-25T06:08:54.954Z,5.73
2022-12-25T06:11:23.172Z,5.57
2022-12-25T06:13:52.140Z,5.40
2022-12-25T06:16:20.449Z,5.70
2022-12-25T06:18:51.920Z,5.87
2022-12-25T06:21:20.436Z,5.50
2022-12-25T06:23:50.112Z,5.10
2022-12-25T06:26:20.109Z,5.23
2022-12-25T06:28:48.877Z,6.10
2022-12-25T06:31:18.011Z,6.87
2022-12-25T06:33:46.560Z,5.37
2022-12-25T06:36:16.925Z,4.93
2022-12-25T06:38:45.198Z,6.10
2022-12-25T06:41:16.051Z,5.13
2022-12-25T06:43:44.366Z,5.63
2022-12-25T06:46:13.547Z,5.37
2022-12-25T06:48:47.891Z,5.47
2022-12-25T06:51:16.646Z,5.60
2022-12-25T06:53:44.889Z,5.60
2022-12-25T06:56:15.568Z,5.70
2022-12-25T06:58:46.201Z,5.33
2022-12-25T07:01:17.746Z,4.60
2022-12-25T07:03:47.280Z,4.70
2022-12-25T07:06:16.125Z,5.10
2022-12-25T07:08:44.455Z,5.40
2022-12-25T07:11:12.795Z,5.23
2022-12-25T07:13:41.034Z,5.03
2022-12-25T07:16:12.117Z,5.40
2022-12-25T07:18:40.629Z,5.70
2022-12-25T07:21:09.413Z,5.73
2022-12-25T07:23:37.823Z,6.33
2022-12-25T07:26:06.157Z,8.10
2022-12-25T07:28:35.001Z,6.20
2022-12-25T07:31:03.866Z,5.80
2022-12-25T07:33:33.918Z,5.23
2022-12-25T07:36:02.419Z,5.67
2022-12-25T07:38:33.843Z,5.77
2022-12-25T07:41:02.178Z,5.77
2022-12-25T07:43:30.407Z,5.53
2022-12-25T07:45:59.087Z,5.40
2022-12-25T07:48:27.501Z,6.83
2022-12-25T07:51:00.845Z,7.13
2022-12-25T07:53:29.152Z,7.43
2022-12-25T07:56:01.416Z,6.50
2022-12-25T07:58:30.207Z,8.77
2022-12-25T08:01:03.678Z,6.43
2022-12-25T08:03:32.233Z,7.07
2022-12-25T08:06:03.133Z,6.50
2022-12-25T08:08:31.441Z,5.90
2022-12-25T08:10:59.679Z,4.50
2022-12-25T08:13:28.073Z,4.27
2022-12-25T08:15:59.140Z,4.63
2022-12-25T08:18:29.822Z,4.60
2022-12-25T08:20:58.690Z,4.77
2022-12-25T08:23:28.285Z,5.57
2022-12-25T08:26:04.927Z,5.47
2022-12-25T08:28:34.000Z,6.47
2022-12-25T08:31:07.262Z,5.30
2022-12-25T08:33:35.582Z,5.77
2022-12-25T08:36:04.294Z,6.00
2022-12-25T08:38:34.019Z,5.87
2022-12-25T08:41:02.281Z,6.23
2022-12-25T08:43:30.726Z,6.67
2022-12-25T08:45:59.037Z,5.57
2022-12-25T08:48:27.543Z,5.37
2022-12-25T08:50:55.981Z,4.83
2022-12-25T08:53:24.571Z,4.20
2022-12-25T08:55:59.613Z,5.10
2022-12-25T08:58:28.007Z,5.43
2022-12-25T09:00:56.385Z,5.97
2022-12-25T09:03:24.914Z,4.90
2022-12-25T09:05:53.392Z,6.07
2022-12-25T09:08:21.783Z,5.73
2022-12-25T09:10:50.059Z,6.03
2022-12-25T09:13:19.682Z,6.40
2022-12-25T09:15:48.614Z,6.60
2022-12-25T09:18:16.830Z,7.80
2022-12-25T09:20:47.766Z,10.43
2022-12-25T09:23:15.983Z,11.73
2022-12-25T09:25:44.204Z,12.43
2022-12-25T09:28:12.470Z,11.10
2022-12-25T09:30:42.188Z,10.30
2022-12-25T09:33:10.448Z,8.27
2022-12-25T09:35:38.697Z,8.10
2022-12-25T09:38:06.916Z,7.73
2022-12-25T09:40:35.194Z,8.00
2022-12-25T09:43:04.234Z,9.73
2022-12-25T09:45:35.764Z,9.87
2022-12-25T09:48:05.939Z,8.40
2022-12-25T09:50:40.082Z,8.77
2022-12-25T09:53:10.393Z,12.30
2022-12-25T09:55:42.321Z,7.80
2022-12-25T09:58:12.397Z,6.60
2022-12-25T10:00:42.964Z,7.80
2022-12-25T10:03:19.408Z,7.47
2022-12-25T10:06:03.253Z,9.40
2022-12-25T10:08:43.466Z,14.63
2022-12-25T10:11:19.448Z,8.93
2022-12-25T10:13:54.668Z,7.07
2022-12-25T10:16:27.028Z,7.60
2022-12-25T10:19:10.342Z,7.10
2022-12-25T10:21:44.520Z,6.13
2022-12-25T10:24:20.435Z,6.13
2022-12-25T10:26:49.424Z,6.60
2022-12-25T10:29:19.665Z,6.60
2022-12-25T10:31:48.832Z,6.33
2022-12-25T10:34:17.683Z,6.77
2022-12-25T10:36:46.845Z,8.20
2022-12-25T10:39:19.200Z,11.37
2022-12-25T10:41:58.569Z,9.50
2022-12-25T10:44:26.807Z,9.40
2022-12-25T10:46:56.228Z,7.03
2022-12-25T10:49:25.480Z,6.83
2022-12-25T10:51:53.665Z,6.20
2022-12-25T10:54:25.496Z,6.40
2022-12-25T10:56:54.518Z,8.53
2022-12-25T10:59:22.767Z,8.17
2022-12-25T11:01:55.006Z,8.30
2022-12-25T11:04:26.312Z,10.63
2022-12-25T11:07:02.616Z,10.20
2022-12-25T11:09:32.317Z,9.77
2022-12-25T11:12:00.818Z,10.43
2022-12-25T11:14:30.650Z,9.20
2022-12-25T11:17:08.847Z,9.83
2022-12-25T11:19:37.299Z,7.43
2022-12-25T11:22:06.424Z,8.37
2022-12-25T11:24:36.065Z,8.87
2022-12-25T11:27:06.504Z,9.00
2022-12-25T11:29:38.128Z,9.03
2022-12-25T11:32:09.070Z,9.83
2022-12-25T11:34:38.912Z,10.20
2022-12-25T11:37:10.847Z,10.03
2022-12-25T11:39:41.841Z,9.73
2022-12-25T11:42:13.768Z,9.77
2022-12-25T11:44:45.560Z,6.43
2022-12-25T11:47:17.628Z,6.30
2022-12-25T11:49:51.565Z,6.70
2022-12-25T11:52:23.695Z,6.03
2022-12-25T11:54:55.132Z,7.00
2022-12-25T11:57:24.516Z,7.03
2022-12-25T11:59:55.967Z,7.30
2022-12-25T12:02:28.675Z,6.80
2022-12-25T12:05:04.147Z,7.50
2022-12-25T12:07:33.931Z,7.90
2022-12-25T12:10:09.357Z,7.73
2022-12-25T12:12:48.356Z,7.67
2022-12-25T12:15:23.586Z,6.33
2022-12-25T12:17:51.872Z,6.67
2022-12-25T12:20:29.121Z,7.53
2022-12-25T12:22:57.577Z,6.30
2022-12-25T12:25:27.870Z,7.37
2022-12-25T12:28:02.917Z,5.60
2022-12-25T12:30:35.451Z,5.37
2022-12-25T12:33:04.573Z,6.40
2022-12-25T12:35:33.954Z,6.60
2022-12-25T12:38:03.931Z,7.40
2022-12-25T12:40:35.475Z,7.60
2022-12-25T12:43:04.014Z,7.03
2022-12-25T12:45:34.193Z,7.10
2022-12-25T12:48:02.572Z,6.60
2022-12-25T12:50:32.796Z,7.03
2022-12-25T12:53:05.656Z,7.10
2022-12-25T12:55:36.339Z,6.93
2022-12-25T12:58:05.582Z,9.17
2022-12-25T13:00:38.261Z,10.37
2022-12-25T13:03:18.961Z,9.60
2022-12-25T13:05:49.364Z,8.63
2022-12-25T13:08:27.474Z,8.07
2022-12-25T13:11:05.486Z,8.70
2022-12-25T13:13:37.140Z,6.57
2022-12-25T13:16:05.626Z,7.00
2022-12-25T13:18:34.734Z,7.60
2022-12-25T13:21:04.902Z,9.03
2022-12-25T13:23:34.392Z,8.00
2022-12-25T13:26:04.932Z,9.00
2022-12-25T13:28:33.890Z,10.53
2022-12-25T13:31:05.941Z,9.70
2022-12-25T13:33:34.709Z,10.27
2022-12-25T13:36:03.083Z,10.97
2022-12-25T13:38:31.464Z,8.63
2022-12-25T13:41:17.751Z,9.27
2022-12-25T13:43:47.680Z,9.63
2022-12-25T13:46:16.176Z,8.80
2022-12-25T13:48:44.483Z,8.97
2022-12-25T13:51:16.834Z,10.50
2022-12-25T13:53:45.558Z,10.47
2022-12-25T13:56:15.319Z,9.97
2022-12-25T13:58:43.843Z,10.20
2022-12-25T14:01:18.491Z,8.77
2022-12-25T14:03:48.328Z,7.77
2022-12-25T14:06:18.981Z,8.53
2022-12-25T14:08:47.643Z,10.27
2022-12-25T14:11:16.823Z,11.50
2022-12-25T14:13:46.445Z,9.93
2022-12-25T14:16:17.184Z,10.80
2022-12-25T14:18:52.123Z,11.03
2022-12-25T14:21:25.385Z,11.27
2022-12-25T14:23:53.694Z,12.83
2022-12-25T14:26:22.510Z,12.47
2022-12-25T14:28:52.170Z,18.07
2022-12-25T14:31:22.653Z,15.90
2022-12-25T14:33:51.490Z,12.07
2022-12-25T14:36:19.811Z,14.90
2022-12-25T14:38:56.896Z,12.80
2022-12-25T14:41:34.137Z,13.37
2022-12-25T14:44:03.320Z,11.23
2022-12-25T14:46:34.308Z,10.23
2022-12-25T14:49:03.368Z,10.87
2022-12-25T14:51:32.139Z,11.40
2022-12-25T14:54:01.981Z,10.90
2022-12-25T14:56:37.987Z,12.93
2022-12-25T14:59:07.708Z,11.93
2022-12-25T15:01:39.068Z,10.27
2022-12-25T15:04:09.186Z,10.73
2022-12-25T15:06:37.577Z,10.03
2022-12-25T15:09:07.371Z,9.97
2022-12-25T15:11:35.633Z,10.53
2022-12-25T15:14:03.878Z,12.10
2022-12-25T15:16:34.326Z,13.47
2022-12-25T15:19:04.110Z,13.17
2022-12-25T15:21:33.044Z,11.50
2022-12-25T15:24:01.820Z,12.40
2022-12-25T15:26:30.984Z,11.30
2022-12-25T15:28:59.281Z,11.93
2022-12-25T15:31:28.345Z,12.60
2022-12-25T15:33:57.615Z,13.17
2022-12-25T15:36:27.653Z,12.33
2022-12-25T15:38:56.006Z,10.40
2022-12-25T15:41:43.555Z,11.80
2022-12-25T15:44:12.786Z,10.43
2022-12-25T15:46:41.326Z,10.70
2022-12-25T15:49:10.768Z,11.97
2022-12-25T15:51:40.703Z,15.60
2022-12-25T15:54:09.520Z,17.70
2022-12-25T15:56:41.387Z,16.40
2022-12-25T15:59:10.954Z,17.00
2022-12-25T16:01:39.450Z,16.63
2022-12-25T16:04:07.796Z,16.10
2022-12-25T16:06:36.043Z,17.90
2022-12-25T16:09:05.717Z,14.97
2022-12-25T16:11:34.003Z,15.03
2022-12-25T16:14:02.240Z,14.23
2022-12-25T16:16:30.539Z,13.93
2022-12-25T16:18:58.968Z,12.50
2022-12-25T16:21:27.546Z,13.90
2022-12-25T16:23:55.773Z,13.33
2022-12-25T16:26:25.429Z,14.07
2022-12-25T16:28:53.746Z,14.87
2022-12-25T16:31:22.127Z,13.90
2022-12-25T16:33:50.409Z,15.20
2022-12-25T16:36:25.092Z,14.40
2022-12-25T16:38:55.065Z,12.37
2022-12-25T16:41:24.650Z,12.20
2022-12-25T16:43:52.829Z,12.03
2022-12-25T16:46:22.470Z,14.27
2022-12-25T16:48:50.788Z,16.20
2022-12-25T16:51:19.979Z,15.53
2022-12-25T16:53:48.496Z,16.77
2022-12-25T16:56:17.899Z,16.83
2022-12-25T16:58:48.276Z,15.80
2022-12-25T17:01:17.295Z,16.17
2022-12-25T17:03:45.557Z,17.37
2022-12-25T17:06:17.432Z,18.37
2022-12-25T17:08:45.711Z,18.03
2022-12-25T17:11:14.264Z,17.83
2022-12-25T17:13:42.549Z,17.93
2022-12-25T17:16:16.841Z,18.17
2022-12-25T17:18:45.214Z,19.50
2022-12-25T17:21:14.515Z,18.40
2022-12-25T17:23:43.196Z,18.73
2022-12-25T17:26:11.450Z,16.80
2022-12-25T17:28:39.655Z,16.13
2022-12-25T17:31:09.256Z,18.83
2022-12-25T17:33:39.101Z,16.10
2022-12-25T17:36:08.590Z,15.90
2022-12-25T17:38:37.190Z,16.70
2022-12-25T17:41:06.335Z,15.53
2022-12-25T17:43:34.873Z,18.67
2022-12-25T17:46:05.604Z,20.87
2022-12-25T17:48:36.074Z,22.13
2022-12-25T17:51:06.247Z,19.77
2022-12-25T17:53:36.090Z,18.07
2022-12-25T17:56:04.365Z,16.77
2022-12-25T17:58:32.967Z,17.23
2022-12-25T18:01:06.585Z,15.53
2022-12-25T18:03:38.557Z,18.43
2022-12-25T18:06:10.217Z,19.70
2022-12-25T18:08:39.777Z,19.40
2022-12-25T18:11:09.792Z,20.37
2022-12-25T18:13:42.305Z,21.67
2022-12-25T18:16:11.177Z,20.97
2022-12-25T18:18:39.619Z,21.83
2022-12-25T18:21:09.967Z,23.20
2022-12-25T18:23:38.245Z,22.83
2022-12-25T18:26:07.705Z,23.30
2022-12-25T18:28:36.180Z,20.43
2022-12-25T18:31:10.543Z,19.00
2022-12-25T18:33:38.856Z,19.13
2022-12-25T18:36:13.669Z,18.90
2022-12-25T18:38:41.956Z,19.57
2022-12-25T18:41:11.010Z,23.43
2022-12-25T18:43:52.497Z,21.63
2022-12-25T18:46:24.541Z,19.93
2022-12-25T18:48:53.722Z,23.17
2022-12-25T18:51:23.474Z,20.40
2022-12-25T18:53:52.035Z,18.30
2022-12-25T18:56:20.797Z,18.20
2022-12-25T18:58:49.107Z,16.23
2022-12-25T19:01:18.896Z,16.07
2022-12-25T19:03:48.828Z,16.20
2022-12-25T19:06:20.544Z,16.87
2022-12-25T19:08:50.325Z,19.13
2022-12-25T19:11:19.180Z,16.13
2022-12-25T19:13:47.447Z,16.23
2022-12-25T19:16:15.716Z,18.20
2022-12-25T19:18:44.029Z,21.43
2022-12-25T19:21:12.375Z,24.70
2022-12-25T19:23:40.678Z,15.87
2022-12-25T19:26:10.951Z,15.70
2022-12-25T19:28:39.841Z,16.50
2022-12-25T19:31:09.758Z,21.37
2022-12-25T19:33:38.667Z,18.87
2022-12-25T19:36:08.237Z,17.13
2022-12-25T19:38:36.768Z,20.47
2022-12-25T19:41:07.251Z,22.27
2022-12-25T19:43:38.231Z,20.97
2022-12-25T19:46:07.013Z,17.40
2022-12-25T19:48:36.087Z,20.53
2022-12-25T19:51:04.441Z,26.77
2022-12-25T19:53:33.001Z,21.67
2022-12-25T19:56:04.022Z,20.27
2022-12-25T19:58:32.598Z,20.30
2022-12-25T20:01:03.190Z,20.73
2022-12-25T20:03:31.596Z,19.43
2022-12-25T20:05:59.963Z,19.53
2022-12-25T20:08:28.233Z,18.47
2022-12-25T20:10:56.644Z,20.97
2022-12-25T20:13:24.944Z,21.87
2022-12-25T20:15:53.352Z,21.50
2022-12-25T20:18:23.071Z,21.23
2022-12-25T20:20:51.367Z,18.57
2022-12-25T20:23:19.687Z,20.30
2022-12-25T20:25:47.961Z,20.13
2022-12-25T20:28:16.272Z,19.50
2022-12-25T20:30:44.720Z,20.07
2022-12-25T20:33:13.015Z,19.20
2022-12-25T20:35:46.151Z,19.53
2022-12-25T20:38:14.537Z,19.37
2022-12-25T20:41:24.324Z,19.97
2022-12-25T20:43:31.284Z,18.90
2022-12-25T20:45:59.804Z,20.03
2022-12-25T20:48:28.486Z,18.73
2022-12-25T20:51:07.926Z,18.83
2022-12-25T20:53:37.683Z,18.67
2022-12-25T20:56:06.656Z,18.30
2022-12-25T20:58:34.926Z,18.57
2022-12-25T21:01:06.178Z,19.13
2022-12-25T21:03:34.740Z,17.77
2022-12-25T21:06:04.761Z,18.47
2022-12-25T21:08:33.284Z,18.43
2022-12-25T21:11:02.588Z,30.80
2022-12-25T21:13:32.167Z,20.43
2022-12-25T21:16:01.040Z,18.20
2022-12-25T21:18:31.232Z,19.20
2022-12-25T21:21:00.897Z,18.10
2022-12-25T21:23:30.850Z,19.33
2022-12-25T21:25:59.212Z,19.17
2022-12-25T21:28:30.209Z,19.93
2022-12-25T21:31:02.886Z,19.80
2022-12-25T21:33:48.997Z,20.93
2022-12-25T21:36:17.602Z,18.87
2022-12-25T21:38:47.456Z,18.37
2022-12-25T21:41:17.255Z,17.70
2022-12-25T21:43:46.147Z,19.10
2022-12-25T21:46:15.084Z,18.20
2022-12-25T21:48:44.121Z,18.47
2022-12-25T21:51:31.445Z,17.17
2022-12-25T21:54:01.518Z,16.83
2022-12-25T21:56:30.959Z,16.77
2022-12-25T21:59:01.021Z,16.20
2022-12-25T22:01:30.089Z,15.70
2022-12-25T22:03:59.173Z,15.93
2022-12-25T22:06:45.070Z,16.27
2022-12-25T22:09:14.970Z,16.33
2022-12-25T22:12:02.517Z,16.07
2022-12-25T22:14:51.875Z,16.20
2022-12-25T22:17:40.609Z,17.07
2022-12-25T22:20:10.505Z,16.70
2022-12-25T22:22:38.804Z,15.90
2022-12-25T22:25:09.151Z,16.17
2022-12-25T22:27:38.808Z,16.63
2022-12-25T22:30:07.802Z,16.60
2022-12-25T22:32:36.117Z,15.77
2022-12-25T22:35:04.550Z,14.90
2022-12-25T22:37:32.773Z,14.70
2022-12-25T22:40:02.400Z,14.00
2022-12-25T22:42:32.342Z,13.67
2022-12-25T22:45:00.662Z,13.77
2022-12-25T22:47:28.967Z,11.53
2022-12-25T22:49:57.240Z,12.40
2022-12-25T22:52:25.519Z,13.00
2022-12-25T22:54:53.809Z,12.30
2022-12-25T22:57:22.157Z,11.37
2022-12-25T22:59:52.997Z,12.10
2022-12-25T23:02:21.784Z,11.80
2022-12-25T23:04:50.208Z,11.07
2022-12-25T23:07:18.504Z,11.13
2022-12-25T23:09:46.819Z,11.50
2022-12-25T23:12:29.185Z,11.53
2022-12-25T23:14:59.263Z,11.20
2022-12-25T23:17:45.167Z,11.90
2022-12-25T23:20:32.272Z,11.93
2022-12-25T23:23:18.257Z,12.73
2022-12-25T23:26:04.306Z,12.93
2022-12-25T23:28:50.391Z,12.70
2022-12-25T23:31:20.284Z,13.40
2022-12-25T23:33:48.492Z,12.37
2022-12-25T23:36:16.767Z,13.00
2022-12-25T23:38:45.230Z,12.23
2022-12-25T23:41:13.449Z,12.03
2022-12-25T23:43:41.671Z,12.63
2022-12-25T23:46:09.957Z,11.93
2022-12-25T23:48:39.607Z,11.90
2022-12-25T23:51:08.492Z,11.87
2022-12-25T23:53:37.009Z,12.67
2022-12-25T23:56:05.712Z,11.67
2022-12-25T23:58:35.117Z,11.93
